Time,TemperatureF,DewpointF,PressureIn,WindDirection,WindDirectionDegrees,WindSpeedMPH,WindSpeedGustMPH,Humidity,HourlyPrecipIn,Conditions,Clouds,dailyrainin,SoftwareType,DateUTC
2013-02-24 00:01:00,26.0,26.0,-100.00,NW,305,1.0,5.0,97,-99.99,,,-99.99,,2013-02-24 06:01:00,
2013-02-24 00:11:00,26.0,26.0,-100.00,NW,305,1.0,5.0,97,-99.99,,,-99.99,,2013-02-24 06:11:00,
2013-02-24 00:42:00,27.0,26.0,-100.00,WNW,300,4.0,7.0,97,-99.99,,,-99.99,,2013-02-24 06:42:00,
2013-02-24 00:52:00,27.0,26.0,-100.00,WNW,300,4.0,7.0,97,-99.99,,,-99.99,,2013-02-24 06:52:00,
2013-02-24 01:01:00,27.0,26.0,-100.00,WNW,300,4.0,7.0,97,-99.99,,,-99.99,,2013-02-24 07:01:00,
2013-02-24 01:12:00,27.0,26.0,-100.00,WNW,300,4.0,7.0,97,-99.99,,,-99.99,,2013-02-24 07:12:00,
2013-02-24 01:42:00,27.0,26.0,-100.00,North,-999,-999.0,-999.0,98,-99.99,,,-99.99,,2013-02-24 07:42:00,
2013-02-24 01:52:00,27.0,26.0,-100.00,North,-999,-999.0,-999.0,98,-99.99,,,-99.99,,2013-02-24 07:52:00,
2013-02-24 02:01:00,27.0,26.0,-100.00,North,-999,-999.0,-999.0,98,-99.99,,,-99.99,,2013-02-24 08:01:00,
2013-02-24 02:11:00,27.0,26.0,-100.00,North,-999,-999.0,-999.0,98,-99.99,,,-99.99,,2013-02-24 08:11:00,
2013-02-24 02:42:00,26.0,26.0,-100.00,NNW,330,1.0,4.0,99,-99.99,,,-99.99,,2013-02-24 08:42:00,
2013-02-24 02:54:00,26.0,26.0,-100.00,NNW,330,1.0,4.0,99,-99.99,,,-99.99,,2013-02-24 08:54:00,
2013-02-24 03:01:00,26.0,26.0,-100.00,NNW,330,1.0,4.0,99,-99.99,,,-99.99,,2013-02-24 09:01:00,
2013-02-24 03:11:00,26.0,26.0,-100.00,NNW,330,1.0,4.0,99,-99.99,,,-99.99,,2013-02-24 09:11:00,
2013-02-24 03:42:00,26.0,26.0,-100.00,WNW,285,3.0,6.0,99,-99.99,,,-99.99,,2013-02-24 09:42:00,
2013-02-24 03:52:00,26.0,26.0,-100.00,WNW,285,3.0,6.0,99,-99.99,,,-99.99,,2013-02-24 09:52:00,
2013-02-24 04:01:00,26.0,26.0,-100.00,WNW,285,3.0,6.0,99,-99.99,,,-99.99,,2013-02-24 10:01:00,
2013-02-24 04:11:00,26.0,26.0,-100.00,WNW,285,3.0,6.0,99,-99.99,,,-99.99,,2013-02-24 10:11:00,
2013-02-24 04:42:00,26.0,26.0,-100.00,NE,55,0.0,0.0,99,-99.99,,,-99.99,,2013-02-24 10:42:00,
2013-02-24 04:52:00,26.0,26.0,-100.00,NE,55,0.0,0.0,99,-99.99,,,-99.99,,2013-02-24 10:52:00,
2013-02-24 05:01:00,26.0,26.0,-100.00,NE,55,0.0,0.0,99,-99.99,,,-99.99,,2013-02-24 11:01:00,
2013-02-24 05:11:00,26.0,26.0,-100.00,NE,55,0.0,0.0,99,-99.99,,,-99.99,,2013-02-24 11:11:00,
2013-02-24 05:42:00,26.0,25.0,-100.00,WSW,245,1.0,2.0,99,-99.99,,,-99.99,,2013-02-24 11:42:00,
2013-02-24 05:53:00,26.0,25.0,-100.00,WSW,245,1.0,2.0,99,-99.99,,,-99.99,,2013-02-24 11:53:00,
2013-02-24 06:01:00,26.0,25.0,-100.00,WSW,245,1.0,2.0,99,-99.99,,,-99.99,,2013-02-24 12:01:00,
2013-02-24 06:11:00,26.0,25.0,-100.00,WSW,245,1.0,2.0,99,-99.99,,,-99.99,,2013-02-24 12:11:00,
2013-02-24 06:46:00,25.0,25.0,-100.00,SSE,165,0.0,1.0,99,-99.99,,,-99.99,,2013-02-24 12:46:00,
2013-02-24 06:57:00,25.0,25.0,-100.00,SSE,165,0.0,1.0,99,-99.99,,,-99.99,,2013-02-24 12:57:00,
2013-02-24 07:12:00,25.0,25.0,-100.00,SSE,165,0.0,1.0,99,-99.99,,,-99.99,,2013-02-24 13:12:00,
2013-02-24 07:45:00,25.0,25.0,-100.00,SSE,150,0.0,1.0,99,-99.99,,,-99.99,,2013-02-24 13:45:00,
2013-02-24 07:55:00,25.0,25.0,-100.00,SSE,150,0.0,1.0,99,-99.99,,,-99.99,,2013-02-24 13:55:00,
2013-02-24 08:04:00,25.0,25.0,-100.00,SSE,150,0.0,1.0,99,-99.99,,,-99.99,,2013-02-24 14:04:00,
2013-02-24 08:13:00,25.0,25.0,-100.00,SSE,150,0.0,1.0,99,-99.99,,,-99.99,,2013-02-24 14:13:00,
2013-02-24 08:45:00,27.0,27.0,-100.00,SW,235,1.0,4.0,99,-99.99,,,-99.99,,2013-02-24 14:45:00,
2013-02-24 08:54:00,27.0,27.0,-100.00,SW,235,1.0,4.0,99,-99.99,,,-99.99,,2013-02-24 14:54:00,
2013-02-24 09:03:00,27.0,27.0,-100.00,SW,235,1.0,4.0,99,-99.99,,,-99.99,,2013-02-24 15:03:00,
2013-02-24 09:13:00,27.0,27.0,-100.00,SW,235,1.0,4.0,99,-99.99,,,-99.99,,2013-02-24 15:13:00,
2013-02-24 09:21:00,29.0,26.0,-100.00,South,185,2.0,6.0,86,-99.99,,,-99.99,,2013-02-24 15:21:00,
2013-02-24 09:42:00,29.0,26.0,-100.00,South,185,2.0,6.0,86,-99.99,,,-99.99,,2013-02-24 15:42:00,
2013-02-24 09:53:00,29.0,26.0,-100.00,South,185,2.0,6.0,86,-99.99,,,-99.99,,2013-02-24 15:53:00,
2013-02-24 10:01:00,29.0,26.0,-100.00,South,185,2.0,6.0,86,-99.99,,,-99.99,,2013-02-24 16:01:00,
2013-02-24 10:11:00,29.0,26.0,-100.00,South,185,2.0,6.0,86,-99.99,,,-99.99,,2013-02-24 16:11:00,
2013-02-24 10:42:00,32.0,24.0,-100.00,South,175,4.0,6.0,71,-99.99,,,-99.99,,2013-02-24 16:42:00,
2013-02-24 10:52:00,32.0,24.0,-100.00,South,175,4.0,6.0,71,-99.99,,,-99.99,,2013-02-24 16:52:00,
2013-02-24 11:01:00,32.0,24.0,-100.00,South,175,4.0,6.0,71,-99.99,,,-99.99,,2013-02-24 17:01:00,
2013-02-24 11:11:00,32.0,24.0,-100.00,South,175,4.0,6.0,71,-99.99,,,-99.99,,2013-02-24 17:11:00,
2013-02-24 11:42:00,34.0,24.0,-100.00,SW,230,2.0,4.0,65,-99.99,,,-99.99,,2013-02-24 17:42:00,
2013-02-24 11:53:00,34.0,24.0,-100.00,SW,230,2.0,4.0,65,-99.99,,,-99.99,,2013-02-24 17:53:00,
2013-02-24 12:01:00,34.0,24.0,-100.00,SW,230,2.0,4.0,65,-99.99,,,-99.99,,2013-02-24 18:01:00,
2013-02-24 12:11:00,34.0,24.0,-100.00,SW,230,2.0,4.0,65,-99.99,,,-99.99,,2013-02-24 18:11:00,
2013-02-24 12:42:00,36.0,23.0,-100.00,West,275,2.0,4.0,60,-99.99,,,-99.99,,2013-02-24 18:42:00,
2013-02-24 12:52:00,36.0,23.0,-100.00,West,275,2.0,4.0,60,-99.99,,,-99.99,,2013-02-24 18:52:00,
2013-02-24 13:01:00,36.0,23.0,-100.00,West,275,2.0,4.0,60,-99.99,,,-99.99,,2013-02-24 19:01:00,
2013-02-24 13:11:00,36.0,23.0,-100.00,West,275,2.0,4.0,60,-99.99,,,-99.99,,2013-02-24 19:11:00,
2013-02-24 13:42:00,35.0,21.0,-100.00,SE,140,1.0,6.0,58,-99.99,,,-99.99,,2013-02-24 19:42:00,
2013-02-24 13:52:00,35.0,21.0,-100.00,SE,140,1.0,6.0,58,-99.99,,,-99.99,,2013-02-24 19:52:00,
2013-02-24 14:02:00,35.0,21.0,-100.00,SE,140,1.0,6.0,58,-99.99,,,-99.99,,2013-02-24 20:02:00,
2013-02-24 14:11:00,35.0,21.0,-100.00,SE,140,1.0,6.0,58,-99.99,,,-99.99,,2013-02-24 20:11:00,
2013-02-24 14:42:00,36.0,21.0,-100.00,South,170,1.0,6.0,54,-99.99,,,-99.99,,2013-02-24 20:42:00,
2013-02-24 14:52:00,36.0,21.0,-100.00,South,170,1.0,6.0,54,-99.99,,,-99.99,,2013-02-24 20:52:00,
2013-02-24 15:01:00,36.0,21.0,-100.00,South,170,1.0,6.0,54,-99.99,,,-99.99,,2013-02-24 21:01:00,
2013-02-24 15:11:00,36.0,21.0,-100.00,South,170,1.0,6.0,54,-99.99,,,-99.99,,2013-02-24 21:11:00,
2013-02-24 15:20:00,34.0,20.0,-100.00,South,185,3.0,8.0,57,-99.99,,,-99.99,,2013-02-24 21:20:00,
2013-02-24 15:42:00,34.0,20.0,-100.00,South,185,3.0,8.0,57,-99.99,,,-99.99,,2013-02-24 21:42:00,
2013-02-24 15:52:00,34.0,20.0,-100.00,South,185,3.0,8.0,57,-99.99,,,-99.99,,2013-02-24 21:52:00,
2013-02-24 16:01:00,34.0,20.0,-100.00,South,185,3.0,8.0,57,-99.99,,,-99.99,,2013-02-24 22:01:00,
2013-02-24 16:11:00,34.0,20.0,-100.00,South,185,3.0,8.0,57,-99.99,,,-99.99,,2013-02-24 22:11:00,
2013-02-24 16:42:00,34.0,21.0,-100.00,South,175,3.0,6.0,59,-99.99,,,-99.99,,2013-02-24 22:42:00,
2013-02-24 16:52:00,34.0,21.0,-100.00,South,175,3.0,6.0,59,-99.99,,,-99.99,,2013-02-24 22:52:00,
2013-02-24 17:02:00,34.0,21.0,-100.00,South,175,3.0,6.0,59,-99.99,,,-99.99,,2013-02-24 23:02:00,
2013-02-24 17:11:00,34.0,21.0,-100.00,South,175,3.0,6.0,59,-99.99,,,-99.99,,2013-02-24 23:11:00,
2013-02-24 17:20:00,33.0,21.0,-100.00,South,175,3.0,5.0,62,-99.99,,,-99.99,,2013-02-24 23:20:00,
2013-02-24 17:42:00,33.0,21.0,-100.00,South,175,3.0,5.0,62,-99.99,,,-99.99,,2013-02-24 23:42:00,
2013-02-24 17:52:00,33.0,21.0,-100.00,South,175,3.0,5.0,62,-99.99,,,-99.99,,2013-02-24 23:52:00,
2013-02-24 18:01:00,33.0,21.0,-100.00,South,175,3.0,5.0,62,-99.99,,,-99.99,,2013-02-25 00:01:00,
2013-02-24 18:11:00,33.0,21.0,-100.00,South,175,3.0,5.0,62,-99.99,,,-99.99,,2013-02-25 00:11:00,
2013-02-24 18:42:00,28.0,19.0,-100.00,South,175,1.0,1.0,69,-99.99,,,-99.99,,2013-02-25 00:42:00,
2013-02-24 18:52:00,28.0,19.0,-100.00,South,175,1.0,1.0,69,-99.99,,,-99.99,,2013-02-25 00:52:00,
2013-02-24 19:01:00,28.0,19.0,-100.00,South,175,1.0,1.0,69,-99.99,,,-99.99,,2013-02-25 01:01:00,
2013-02-24 19:11:00,28.0,19.0,-100.00,South,175,1.0,1.0,69,-99.99,,,-99.99,,2013-02-25 01:11:00,
2013-02-24 19:42:00,24.0,19.0,-100.00,SE,130,0.0,1.0,80,-99.99,,,-99.99,,2013-02-25 01:42:00,
2013-02-24 19:52:00,24.0,19.0,-100.00,SE,130,0.0,1.0,80,-99.99,,,-99.99,,2013-02-25 01:52:00,
2013-02-24 20:01:00,24.0,19.0,-100.00,SE,130,0.0,1.0,80,-99.99,,,-99.99,,2013-02-25 02:01:00,
2013-02-24 20:11:00,24.0,19.0,-100.00,SE,130,0.0,1.0,80,-99.99,,,-99.99,,2013-02-25 02:11:00,
2013-02-24 20:20:00,22.0,19.0,-100.00,South,190,1.0,2.0,89,-99.99,,,-99.99,,2013-02-25 02:20:00,
2013-02-24 20:42:00,22.0,19.0,-100.00,South,190,1.0,2.0,89,-99.99,,,-99.99,,2013-02-25 02:42:00,
2013-02-24 20:52:00,22.0,19.0,-100.00,South,190,1.0,2.0,89,-99.99,,,-99.99,,2013-02-25 02:52:00,
2013-02-24 21:01:00,22.0,19.0,-100.00,South,190,1.0,2.0,89,-99.99,,,-99.99,,2013-02-25 03:01:00,
2013-02-24 21:11:00,22.0,19.0,-100.00,South,190,1.0,2.0,89,-99.99,,,-99.99,,2013-02-25 03:11:00,
2013-02-24 21:42:00,19.0,17.0,-100.00,South,185,0.0,1.0,93,-99.99,,,-99.99,,2013-02-25 03:42:00,
2013-02-24 21:52:00,19.0,17.0,-100.00,South,185,0.0,1.0,93,-99.99,,,-99.99,,2013-02-25 03:52:00,
2013-02-24 22:01:00,19.0,17.0,-100.00,South,185,0.0,1.0,93,-99.99,,,-99.99,,2013-02-25 04:01:00,
2013-02-24 22:11:00,19.0,17.0,-100.00,South,185,0.0,1.0,93,-99.99,,,-99.99,,2013-02-25 04:11:00,
2013-02-24 22:42:00,15.0,14.0,-100.00,West,270,0.0,0.0,94,-99.99,,,-99.99,,2013-02-25 04:42:00,
2013-02-24 22:52:00,15.0,14.0,-100.00,West,270,0.0,0.0,94,-99.99,,,-99.99,,2013-02-25 04:52:00,
2013-02-24 23:01:00,15.0,14.0,-100.00,West,270,0.0,0.0,94,-99.99,,,-99.99,,2013-02-25 05:01:00,
2013-02-24 23:11:00,15.0,14.0,-100.00,West,270,0.0,0.0,94,-99.99,,,-99.99,,2013-02-25 05:11:00,
2013-02-24 23:42:00,14.0,13.0,-100.00,West,270,0.0,0.0,95,-99.99,,,-99.99,,2013-02-25 05:42:00,
2013-02-24 23:52:00,14.0,13.0,-100.00,West,270,0.0,0.0,95,-99.99,,,-99.99,,2013-02-25 05:52:00,